Flight Number: AVA6092 Duration: 5:30
Departure: Moscow Sheremetyevo (UUEE) at 16:30 Distance: 2000 Nm
Arrival: Dubai Intl Airport (OMDB) at 22:00 Equipment: A321

Weather Information
Moscow / Sheremet'Ye , Russia (UUEE) 55-59N 037-30E Jun 19, 2024 - 09:00 AM EDT / 2024.06.19 1300 UTC
Wind: from the WSW (250 degrees) at 13 MPH (12 KT) gusting to 27 MPH (23 KT) (direction variable):0
Visibility: greater than 7 mile(s):0 Temperature: 77 F (25 C) Dew Point: 55 F (13 C) Relative Humidity: 47% Pressure (altimeter): 29.91 in. Hg (1013 hPa)
ob: UUEE 191300Z 25006G12MPS 210V280 CAVOK 25/13 Q1013 R24L/CLRD62 R24C/CLRD62 NOSIG cycle: 13
Sunrise: 00:49 Sunset: 18:14 (UTC)

Dubai International Airport, United Arab Emirates (OMDB) 25-15N 055-20E 5M Jun 19, 2024 - 09:00 AM EDT / 2024.06.19 1300 UTC
Wind: from the W (270 degrees) at 13 MPH (11 KT):0
Visibility: greater than 7 mile(s):0 Temperature: 100 F (38 C) Heat index: 118.4 F (48.0 C):1 Dew Point: 78 F (26 C) Relative Humidity: 50% Pressure (altimeter): 29.44 in. Hg (0997 hPa)
ob: OMDB 191300Z 27011KT CAVOK 38/26 Q0997 NOSIG cycle: 13
Sunrise: 01:31 Sunset: 15:08 (UTC)

TAF:2024/06/19 12:03 TAF OMDB 191100Z 1912/2018 28012KT 8000 NSC BECMG 1916/1918 17006KT BECMG 2006/2008 30012KT BECMG 2016/2018 VRB02KT

This route has never been flown.

Route map